Rialma, Brazil
Current Conditions -  °F | °C
As of 3:00 PM on Thursday 18 Dec 2014 (Local Time) from SBAN Reporting Station
Thunderstorm Thunderstorm  
Wind Chill: 75°   Ceiling: Unl
Heat Index: 75°   Visibility: 6mi
Dew Point: 66°   Wind: 14mph
Humidity: 73%   Direction: 360°N
Pressure: 29.97"   Gusts: NA
Location:  15.32°S, 49.58°W
Report Text: SBAN 181700Z 36012KT 9999 2500N VCSH VCTS SCT020 FEW025CB BKN100 24/19 Q1015
Loading
Personal Weather Stations






























Interactive Weather Map New forecast layout! Learn more

10-Day Weather Forecast

Advertisements
Track Severe Weather on mobile